createdAt,value
2018-02-22T00:02:04.709Z,43.13
2018-02-22T00:04:33.110Z,37.97
2018-02-22T00:07:01.768Z,37.38
2018-02-22T00:09:30.155Z,32.75
2018-02-22T00:11:58.551Z,32.95
2018-02-22T00:14:26.955Z,29.75
2018-02-22T00:16:55.354Z,29.73
2018-02-22T00:19:24.639Z,29.83
2018-02-22T00:21:53.048Z,31.42
2018-02-22T00:24:22.341Z,29.65
2018-02-22T00:26:52.175Z,29.55
2018-02-22T00:29:20.596Z,30.08
2018-02-22T00:31:49.008Z,27.23
2018-02-22T00:34:17.416Z,29.15
2018-02-22T00:36:45.828Z,31.35
2018-02-22T00:39:14.218Z,31.80
2018-02-22T00:41:42.631Z,26.35
2018-02-22T00:44:11.017Z,27.45
2018-02-22T00:46:40.225Z,30.48
2018-02-22T00:49:09.383Z,28.12
2018-02-22T00:51:37.770Z,29.25
2018-02-22T00:54:06.263Z,30.12
2018-02-22T00:56:34.668Z,27.58
2018-02-22T00:59:03.879Z,27.80
2018-02-22T01:01:32.302Z,25.83
2018-02-22T01:04:00.697Z,25.73
2018-02-22T01:06:29.562Z,26.25
2018-02-22T01:08:57.961Z,26.27
2018-02-22T01:11:26.363Z,27.42
2018-02-22T01:13:55.543Z,29.10
2018-02-22T01:16:23.988Z,26.75
2018-02-22T01:18:52.363Z,24.77
2018-02-22T01:21:20.758Z,25.12
2018-02-22T01:23:49.151Z,26.52
2018-02-22T01:26:17.722Z,26.48
2018-02-22T01:28:46.116Z,24.83
2018-02-22T01:31:14.654Z,25.05
2018-02-22T01:33:43.069Z,24.50
2018-02-22T01:36:11.467Z,28.23
2018-02-22T01:38:39.908Z,24.75
2018-02-22T01:41:08.371Z,27.13
2018-02-22T01:43:37.542Z,28.75
2018-02-22T01:46:05.933Z,27.13
2018-02-22T01:48:35.093Z,29.98
2018-02-22T01:51:03.521Z,26.83
2018-02-22T01:53:32.891Z,27.83
2018-02-22T01:56:01.402Z,27.87
2018-02-22T01:58:30.560Z,26.17
2018-02-22T02:00:58.958Z,26.70
2018-02-22T02:03:27.367Z,25.52
2018-02-22T02:05:55.774Z,25.80
2018-02-22T02:08:24.461Z,27.75
2018-02-22T02:10:52.851Z,27.70
2018-02-22T02:13:21.276Z,26.87
2018-02-22T02:15:50.608Z,27.92
2018-02-22T02:18:19.013Z,29.00
2018-02-22T02:20:47.486Z,28.90
2018-02-22T02:23:15.873Z,29.00
2018-02-22T02:25:44.270Z,28.35
2018-02-22T02:28:12.656Z,27.65
2018-02-22T02:30:41.042Z,26.33
2018-02-22T02:33:09.440Z,25.30
2018-02-22T02:35:38.632Z,26.15
2018-02-22T02:38:07.039Z,24.67
2018-02-22T02:40:36.404Z,28.05
2018-02-22T02:43:05.565Z,26.73
2018-02-22T02:45:34.000Z,27.52
2018-02-22T02:48:03.181Z,28.17
2018-02-22T02:50:31.748Z,25.33
2018-02-22T02:53:00.564Z,26.60
2018-02-22T02:55:28.948Z,22.85
2018-02-22T02:57:57.334Z,27.48
2018-02-22T03:00:26.508Z,26.75
2018-02-22T03:02:54.189Z,24.80
2018-02-22T03:05:23.436Z,24.02
2018-02-22T03:07:52.101Z,23.87
2018-02-22T03:10:20.508Z,22.17
2018-02-22T03:12:48.895Z,22.25
2018-02-22T03:15:17.288Z,23.12
2018-02-22T03:17:45.743Z,22.35
2018-02-22T03:20:14.223Z,22.13
2018-02-22T03:22:42.635Z,24.27
2018-02-22T03:25:11.018Z,23.05
2018-02-22T03:27:39.475Z,20.92
2018-02-22T03:30:07.912Z,21.87
2018-02-22T03:32:36.369Z,20.77
2018-02-22T03:35:04.758Z,23.70
2018-02-22T03:37:33.153Z,23.27
2018-02-22T03:40:02.379Z,22.35
2018-02-22T03:42:30.765Z,21.98
2018-02-22T03:44:59.178Z,21.50
2018-02-22T03:47:27.578Z,20.33
2018-02-22T03:49:56.171Z,22.20
2018-02-22T03:52:24.563Z,21.45
2018-02-22T03:54:53.743Z,22.30
2018-02-22T03:57:22.128Z,20.95
2018-02-22T03:59:51.397Z,20.80
2018-02-22T04:02:19.784Z,22.62
2018-02-22T04:04:48.207Z,21.10
2018-02-22T04:07:18.195Z,21.17
2018-02-22T04:09:47.395Z,22.37
2018-02-22T04:12:15.950Z,21.62
2018-02-22T04:14:44.380Z,21.65
2018-02-22T04:17:13.552Z,21.17
2018-02-22T04:19:41.966Z,22.02
2018-02-22T04:22:11.102Z,20.52
2018-02-22T04:24:39.504Z,19.42
2018-02-22T04:27:07.920Z,20.88
2018-02-22T04:29:37.067Z,20.83
2018-02-22T04:32:05.525Z,19.52
2018-02-22T04:34:33.923Z,21.08
2018-02-22T04:37:02.389Z,21.75
2018-02-22T04:39:30.834Z,20.20
2018-02-22T04:41:59.344Z,24.27
2018-02-22T04:44:27.747Z,20.10
2018-02-22T04:46:56.141Z,21.50
2018-02-22T04:49:24.640Z,18.45
2018-02-22T04:51:53.076Z,20.80
2018-02-22T04:54:21.519Z,19.67
2018-02-22T04:56:50.704Z,20.00
2018-02-22T04:59:19.129Z,20.25
2018-02-22T05:01:47.553Z,20.05
2018-02-22T05:04:16.131Z,21.00
2018-02-22T05:06:44.530Z,18.92
2018-02-22T05:09:13.689Z,20.67
2018-02-22T05:11:42.259Z,20.62
2018-02-22T05:14:10.648Z,21.45
2018-02-22T05:16:39.045Z,18.87
2018-02-22T05:19:07.443Z,19.17
2018-02-22T05:21:35.879Z,19.17
2018-02-22T05:24:04.266Z,22.25
2018-02-22T05:26:32.672Z,20.23
2018-02-22T05:29:01.052Z,18.98
2018-02-22T05:31:29.447Z,19.30
2018-02-22T05:33:57.922Z,19.87
2018-02-22T05:36:26.327Z,18.80
2018-02-22T05:38:55.510Z,20.37
2018-02-22T05:41:23.891Z,18.65
2018-02-22T05:43:52.270Z,20.40
2018-02-22T05:46:20.646Z,19.23
2018-02-22T05:48:49.821Z,19.83
2018-02-22T05:51:18.276Z,21.08
2018-02-22T05:53:46.659Z,20.50
2018-02-22T05:56:15.076Z,18.42
2018-02-22T05:58:44.353Z,18.58
2018-02-22T06:01:12.781Z,19.50
2018-02-22T06:03:42.017Z,17.67
2018-02-22T06:06:10.449Z,18.73
2018-02-22T06:08:38.837Z,18.45
2018-02-22T06:11:08.027Z,18.02
2018-02-22T06:13:36.852Z,17.48
2018-02-22T06:16:05.395Z,17.85
2018-02-22T06:18:33.783Z,20.33
2018-02-22T06:21:02.952Z,17.45
2018-02-22T06:23:32.019Z,17.73
2018-02-22T06:26:00.456Z,19.33
2018-02-22T06:28:28.861Z,18.08
2018-02-22T06:30:58.039Z,18.70
2018-02-22T06:33:26.455Z,19.48
2018-02-22T06:35:54.923Z,18.87
2018-02-22T06:38:23.520Z,19.23
2018-02-22T06:40:51.948Z,19.25
2018-02-22T06:43:20.395Z,19.00
2018-02-22T06:45:48.846Z,19.40
2018-02-22T06:48:18.042Z,18.67
2018-02-22T06:50:47.231Z,18.87
2018-02-22T06:53:16.433Z,20.50
2018-02-22T06:55:45.637Z,19.27
2018-02-22T06:58:15.031Z,18.83
2018-02-22T07:00:44.331Z,16.92
2018-02-22T07:03:12.715Z,16.80
2018-02-22T07:05:41.879Z,17.12
2018-02-22T07:08:10.295Z,17.25
2018-02-22T07:10:39.468Z,17.05
2018-02-22T07:13:08.034Z,17.02
2018-02-22T07:15:36.475Z,15.93
2018-02-22T07:18:04.936Z,17.23
2018-02-22T07:20:33.375Z,19.60
2018-02-22T07:23:02.070Z,18.62
2018-02-22T07:25:30.603Z,15.60
2018-02-22T07:27:58.987Z,18.15
2018-02-22T07:30:28.106Z,17.85
2018-02-22T07:32:56.490Z,15.35
2018-02-22T07:35:24.892Z,16.33
2018-02-22T07:37:53.312Z,15.80
2018-02-22T07:40:22.467Z,15.13
2018-02-22T07:42:51.000Z,15.68
2018-02-22T07:45:20.770Z,15.43
2018-02-22T07:47:49.320Z,15.05
2018-02-22T07:50:17.731Z,15.05
2018-02-22T07:52:46.238Z,15.45
2018-02-22T07:55:15.570Z,14.93
2018-02-22T07:57:43.978Z,14.10
2018-02-22T08:00:12.447Z,14.85
2018-02-22T08:02:40.912Z,13.18
2018-02-22T08:05:09.478Z,14.90
2018-02-22T08:07:38.652Z,13.10
2018-02-22T08:10:07.080Z,14.70
2018-02-22T08:12:35.716Z,12.15
2018-02-22T08:15:04.118Z,13.43
2018-02-22T08:17:33.293Z,16.00
2018-02-22T08:20:01.676Z,15.25
2018-02-22T08:22:30.096Z,14.57
2018-02-22T08:24:58.472Z,13.77
2018-02-22T08:27:26.860Z,12.68
2018-02-22T08:29:55.284Z,13.80
2018-02-22T08:32:23.667Z,11.90
2018-02-22T08:34:52.145Z,12.13
2018-02-22T08:37:20.604Z,12.95
2018-02-22T08:39:49.021Z,13.18
2018-02-22T08:42:17.451Z,11.98
2018-02-22T08:44:46.002Z,11.80
2018-02-22T08:47:14.430Z,13.18
2018-02-22T08:49:42.842Z,10.50
2018-02-22T08:52:11.255Z,12.75
2018-02-22T08:54:40.404Z,11.40
2018-02-22T08:57:08.854Z,12.07
2018-02-22T08:59:38.022Z,12.40
2018-02-22T09:02:06.429Z,12.37
2018-02-22T09:04:35.027Z,10.70
2018-02-22T09:07:03.513Z,11.80
2018-02-22T09:09:32.009Z,10.52
2018-02-22T09:12:01.107Z,8.32
2018-02-22T09:14:29.496Z,11.05
2018-02-22T09:16:57.919Z,9.77
2018-02-22T09:19:27.088Z,9.93
2018-02-22T09:21:55.744Z,8.90
2018-02-22T09:24:24.159Z,9.70
2018-02-22T09:26:52.543Z,11.02
2018-02-22T09:29:21.049Z,10.80
2018-02-22T09:31:50.295Z,8.60
2018-02-22T09:34:18.700Z,9.15
2018-02-22T09:36:47.100Z,9.52
2018-02-22T09:39:16.299Z,9.30
2018-02-22T09:41:45.475Z,9.75
2018-02-22T09:44:14.756Z,6.07
2018-02-22T09:46:43.175Z,9.32
2018-02-22T09:49:11.590Z,9.53
2018-02-22T09:51:39.991Z,9.85
2018-02-22T09:54:08.436Z,10.40
2018-02-22T09:56:37.596Z,10.53
2018-02-22T09:59:06.268Z,10.40
2018-02-22T10:01:34.681Z,9.80
2018-02-22T10:04:03.814Z,9.50
2018-02-22T10:06:32.204Z,10.83
2018-02-22T10:09:00.621Z,9.90
2018-02-22T10:11:29.040Z,10.50
2018-02-22T10:13:58.392Z,10.57
2018-02-22T10:16:26.812Z,10.30
2018-02-22T10:18:55.316Z,10.67
2018-02-22T10:21:24.497Z,10.53
2018-02-22T10:23:53.679Z,9.40
2018-02-22T10:26:22.080Z,10.87
2018-02-22T10:28:51.238Z,9.27
2018-02-22T10:31:19.642Z,8.90
2018-02-22T10:33:48.028Z,8.63
2018-02-22T10:36:17.252Z,9.23
2018-02-22T10:38:45.684Z,10.65
2018-02-22T10:41:14.087Z,11.50
2018-02-22T10:43:42.671Z,9.90
2018-02-22T10:46:11.079Z,10.17
2018-02-22T10:48:39.512Z,8.95
2018-02-22T10:51:08.100Z,9.50
2018-02-22T10:53:36.565Z,7.30
2018-02-22T10:56:05.009Z,10.52
2018-02-22T10:58:33.385Z,9.15
2018-02-22T11:01:07.289Z,10.00
2018-02-22T11:03:36.491Z,10.00
2018-02-22T11:06:04.886Z,9.02
2018-02-22T11:08:33.292Z,10.40
2018-02-22T11:11:01.819Z,8.43
2018-02-22T11:13:30.214Z,8.90
2018-02-22T11:15:59.351Z,9.07
2018-02-22T11:18:28.686Z,8.00
2018-02-22T11:23:33.354Z,10.45
2018-02-22T11:26:01.804Z,10.10
2018-02-22T11:28:30.222Z,9.85
2018-02-22T11:30:58.847Z,8.15
2018-02-22T11:33:27.981Z,9.13
2018-02-22T11:35:56.375Z,8.30
2018-02-22T11:38:24.789Z,9.45
2018-02-22T11:40:54.012Z,7.22
2018-02-22T11:43:23.181Z,8.65
2018-02-22T11:45:51.623Z,7.78
2018-02-22T11:48:20.296Z,9.38
2018-02-22T11:50:48.724Z,8.95
2018-02-22T11:53:17.106Z,9.38
2018-02-22T11:55:45.498Z,8.23
2018-02-22T11:58:13.910Z,9.57
2018-02-22T12:00:43.061Z,9.05
2018-02-22T12:03:11.471Z,9.37
2018-02-22T12:05:40.755Z,9.40
2018-02-22T12:08:09.165Z,8.45
2018-02-22T12:10:38.411Z,9.57
2018-02-22T12:13:06.808Z,8.82
2018-02-22T12:15:35.995Z,9.35
2018-02-22T12:18:04.391Z,6.47
2018-02-22T12:20:32.798Z,7.97
2018-02-22T12:23:01.220Z,7.80
2018-02-22T12:25:29.723Z,7.40
2018-02-22T12:27:58.144Z,7.65
2018-02-22T12:30:26.550Z,8.23
2018-02-22T12:32:54.960Z,7.93
2018-02-22T12:35:23.384Z,7.10
2018-02-22T12:37:51.799Z,7.07
2018-02-22T12:40:20.405Z,6.68
2018-02-22T12:42:48.872Z,7.20
2018-02-22T12:45:17.271Z,7.20
2018-02-22T12:47:45.672Z,6.90
2018-02-22T12:50:14.098Z,7.50
2018-02-22T12:52:43.265Z,7.25
2018-02-22T12:55:13.246Z,9.25
2018-02-22T12:57:41.685Z,6.80
2018-02-22T13:00:12.067Z,8.32
2018-02-22T13:02:40.757Z,8.27
2018-02-22T13:05:09.414Z,9.43
2018-02-22T13:07:37.824Z,6.72
2018-02-22T13:10:06.353Z,8.35
2018-02-22T13:12:35.577Z,8.15
2018-02-22T13:15:04.425Z,8.20
2018-02-22T13:17:32.954Z,9.10
2018-02-22T13:20:01.845Z,8.63
2018-02-22T13:22:31.681Z,9.00
2018-02-22T13:25:10.526Z,8.93
2018-02-22T13:27:39.425Z,8.80
2018-02-22T13:30:08.711Z,6.05
2018-02-22T13:32:54.998Z,6.27
2018-02-22T13:35:23.490Z,6.37
2018-02-22T13:40:54.937Z,8.02
2018-02-22T13:43:23.632Z,6.47
2018-02-22T13:45:52.208Z,7.57
2018-02-22T13:48:23.003Z,6.95
2018-02-22T13:51:05.428Z,7.65
2018-02-22T13:53:33.815Z,6.18
2018-02-22T13:56:03.638Z,7.93
2018-02-22T13:58:32.255Z,6.90
2018-02-22T14:01:18.603Z,6.55
2018-02-22T14:03:47.775Z,7.97
2018-02-22T14:06:16.359Z,7.50
2018-02-22T14:08:47.519Z,7.43
2018-02-22T14:11:15.988Z,6.60
2018-02-22T14:13:44.408Z,7.83
2018-02-22T14:16:12.830Z,7.50
2018-02-22T14:18:41.213Z,5.90
2018-02-22T14:21:09.717Z,6.90
2018-02-22T14:23:38.119Z,7.40
2018-02-22T14:26:06.569Z,8.07
2018-02-22T14:28:34.955Z,6.00
2018-02-22T14:31:03.374Z,6.77
2018-02-22T14:33:32.537Z,8.07
2018-02-22T14:36:00.975Z,8.53
2018-02-22T14:38:29.362Z,6.80
2018-02-22T14:40:57.867Z,7.97
2018-02-22T14:43:26.283Z,7.77
2018-02-22T14:45:54.681Z,7.50
2018-02-22T14:48:23.853Z,9.53
2018-02-22T14:50:52.284Z,8.30
2018-02-22T14:53:20.684Z,7.80
2018-02-22T14:55:49.171Z,9.33
2018-02-22T14:58:17.607Z,8.80
2018-02-22T15:00:52.477Z,7.80
2018-02-22T15:03:20.974Z,8.30
2018-02-22T15:05:49.374Z,8.50
2018-02-22T15:08:17.859Z,8.52
2018-02-22T15:10:46.414Z,8.43
2018-02-22T15:13:14.875Z,8.85
2018-02-22T15:15:43.404Z,9.45
2018-02-22T15:18:11.805Z,8.07
2018-02-22T15:20:40.244Z,7.93
2018-02-22T15:23:09.410Z,9.50
2018-02-22T15:25:49.324Z,7.85
2018-02-22T15:28:17.727Z,8.48
2018-02-22T15:30:46.317Z,9.75
2018-02-22T15:33:15.963Z,7.07
2018-02-22T15:35:44.805Z,8.60
2018-02-22T15:38:13.219Z,9.15
2018-02-22T15:40:42.385Z,8.68
2018-02-22T15:43:10.803Z,9.25
2018-02-22T15:45:40.057Z,8.18
2018-02-22T15:48:10.218Z,8.80
2018-02-22T15:50:38.624Z,8.35
2018-02-22T15:53:07.010Z,7.93
2018-02-22T15:55:35.403Z,7.95
2018-02-22T15:58:03.787Z,8.90
2018-02-22T16:00:32.227Z,9.52
2018-02-22T16:03:01.408Z,8.65
2018-02-22T16:05:29.803Z,8.48
2018-02-22T16:07:58.354Z,9.02
2018-02-22T16:10:26.889Z,8.18
2018-02-22T16:12:55.280Z,7.90
2018-02-22T16:15:23.704Z,8.63
2018-02-22T16:17:52.918Z,8.05
2018-02-22T16:20:21.324Z,8.93
2018-02-22T16:22:49.728Z,5.90
2018-02-22T16:25:18.169Z,8.68
2018-02-22T16:27:47.343Z,7.03
2018-02-22T16:30:15.895Z,7.75
2018-02-22T16:32:44.277Z,8.02
2018-02-22T16:35:12.656Z,8.45
2018-02-22T16:37:41.074Z,8.57
2018-02-22T16:40:09.476Z,7.47
2018-02-22T16:42:38.642Z,8.02
2018-02-22T16:45:07.686Z,8.13
2018-02-22T16:47:36.851Z,8.77
2018-02-22T16:50:05.307Z,7.37
2018-02-22T16:52:43.621Z,6.87
2018-02-22T16:55:12.052Z,9.52
2018-02-22T16:57:41.213Z,7.20
2018-02-22T17:00:10.620Z,7.37
2018-02-22T17:02:41.867Z,9.50
2018-02-22T17:05:10.516Z,7.53
2018-02-22T17:07:40.962Z,8.98
2018-02-22T17:10:09.456Z,9.52
2018-02-22T17:12:37.875Z,7.37
2018-02-22T17:15:07.023Z,8.82
2018-02-22T17:17:46.239Z,7.53
2018-02-22T17:20:15.369Z,7.30
2018-02-22T17:22:46.516Z,7.70
2018-02-22T17:25:15.640Z,7.62
2018-02-22T17:27:49.421Z,7.75
2018-02-22T17:30:25.827Z,7.50
2018-02-22T17:32:55.142Z,8.43
2018-02-22T17:38:27.028Z,9.65
2018-02-22T17:41:03.799Z,9.73
2018-02-22T17:43:33.118Z,9.15
2018-02-22T17:46:02.375Z,10.85
2018-02-22T17:48:31.752Z,11.00
2018-02-22T17:51:00.971Z,11.32
2018-02-22T17:53:29.558Z,10.93
2018-02-22T17:55:57.914Z,9.20
2018-02-22T17:58:26.396Z,9.40
2018-02-22T18:00:55.720Z,8.30
2018-02-22T18:03:24.626Z,7.75
2018-02-22T18:05:53.006Z,10.57
2018-02-22T18:08:22.240Z,9.50
2018-02-22T18:10:50.661Z,11.52
2018-02-22T18:13:19.072Z,11.02
2018-02-22T18:15:47.506Z,11.15
2018-02-22T18:18:15.914Z,14.05
2018-02-22T18:20:44.532Z,16.45
2018-02-22T18:23:13.722Z,19.17
2018-02-22T18:25:42.200Z,14.95
2018-02-22T18:28:10.753Z,17.52
2018-02-22T18:30:39.164Z,17.08
2018-02-22T18:33:07.597Z,14.32
2018-02-22T18:35:36.211Z,14.57
2018-02-22T18:38:04.873Z,15.13
2018-02-22T18:40:38.693Z,14.70
2018-02-22T18:43:12.708Z,15.98
2018-02-22T18:45:41.128Z,15.65
2018-02-22T18:48:09.562Z,15.98
2018-02-22T18:50:38.020Z,17.60
2018-02-22T18:53:06.528Z,14.98
2018-02-22T18:55:35.100Z,16.42
2018-02-22T18:58:03.515Z,15.55
2018-02-22T19:00:31.956Z,16.12
2018-02-22T19:03:00.416Z,15.80
2018-02-22T19:05:29.601Z,16.15
2018-02-22T19:07:58.019Z,17.60
2018-02-22T19:10:43.688Z,20.08
2018-02-22T19:13:12.143Z,16.30
2018-02-22T19:15:40.649Z,16.50
2018-02-22T19:18:09.105Z,20.10
2018-02-22T19:20:37.808Z,18.65
2018-02-22T19:23:15.648Z,19.80
2018-02-22T19:25:50.192Z,19.20
2018-02-22T19:28:19.560Z,17.15
2018-02-22T19:30:48.632Z,17.50
2018-02-22T19:33:17.232Z,17.62
2018-02-22T19:35:45.784Z,19.67
2018-02-22T19:38:14.480Z,17.50
2018-02-22T19:40:44.146Z,19.08
2018-02-22T19:43:12.821Z,20.37
2018-02-22T19:45:41.452Z,18.85
2018-02-22T19:48:09.920Z,20.98
2018-02-22T19:50:39.277Z,20.08
2018-02-22T19:53:18.765Z,18.52
2018-02-22T19:55:47.219Z,19.35
2018-02-22T19:58:15.928Z,22.50
2018-02-22T20:00:44.483Z,21.55
2018-02-22T20:03:13.200Z,26.10
2018-02-22T20:05:45.802Z,28.95
2018-02-22T20:08:15.409Z,26.83
2018-02-22T20:10:55.729Z,21.62
2018-02-22T20:13:24.339Z,29.65
2018-02-22T20:15:54.156Z,20.83
2018-02-22T20:18:22.951Z,19.35
2018-02-22T20:20:51.851Z,21.40
2018-02-22T20:23:20.354Z,23.45
2018-02-22T20:25:49.316Z,19.25
2018-02-22T20:28:18.568Z,19.95
2018-02-22T20:30:47.133Z,19.50
2018-02-22T20:33:19.333Z,23.25
2018-02-22T20:35:48.906Z,23.87
2018-02-22T20:38:17.476Z,23.35
2018-02-22T20:40:46.145Z,28.42
2018-02-22T20:43:15.593Z,27.05
2018-02-22T20:45:43.976Z,22.40
2018-02-22T20:48:14.205Z,25.15
2018-02-22T20:50:42.859Z,22.83
2018-02-22T20:56:07.839Z,25.00
2018-02-22T20:58:37.217Z,20.70
2018-02-22T21:01:05.742Z,18.30
2018-02-22T21:03:36.730Z,20.20
2018-02-22T21:06:05.139Z,18.90
2018-02-22T21:08:33.523Z,19.80
2018-02-22T21:11:01.949Z,19.00
2018-02-22T21:13:30.354Z,17.20
2018-02-22T21:15:58.793Z,20.50
2018-02-22T21:18:27.223Z,19.02
2018-02-22T21:20:55.677Z,18.77
2018-02-22T21:23:24.128Z,16.02
2018-02-22T21:25:53.273Z,18.92
2018-02-22T21:28:21.823Z,16.83
2018-02-22T21:30:50.224Z,15.80
2018-02-22T21:33:18.763Z,16.25
2018-02-22T21:35:48.142Z,15.30
2018-02-22T21:38:16.553Z,18.00
2018-02-22T21:40:45.042Z,16.12
2018-02-22T21:43:13.434Z,15.90
2018-02-22T21:45:41.836Z,16.25
2018-02-22T21:48:10.247Z,17.02
2018-02-22T21:50:39.441Z,14.95
2018-02-22T21:53:07.824Z,13.50
2018-02-22T21:55:37.430Z,17.52
2018-02-22T21:58:05.983Z,15.13
2018-02-22T22:00:34.394Z,16.75
2018-02-22T22:03:03.558Z,16.30
2018-02-22T22:05:31.948Z,16.08
2018-02-22T22:08:00.351Z,15.40
2018-02-22T22:10:29.524Z,15.13
2018-02-22T22:12:57.987Z,15.65
2018-02-22T22:15:27.183Z,15.38
2018-02-22T22:17:55.733Z,15.15
2018-02-22T22:20:24.132Z,14.57
2018-02-22T22:22:52.577Z,15.45
2018-02-22T22:25:20.984Z,15.30
2018-02-22T22:27:49.387Z,14.40
2018-02-22T22:30:17.775Z,14.90
2018-02-22T22:32:46.244Z,15.45
2018-02-22T22:35:14.650Z,14.10
2018-02-22T22:37:43.801Z,15.27
2018-02-22T22:40:12.376Z,15.27
2018-02-22T22:42:40.802Z,14.20
2018-02-22T22:45:09.216Z,15.45
2018-02-22T22:47:37.606Z,15.43
2018-02-22T22:50:06.015Z,13.40
2018-02-22T22:52:34.535Z,14.48
2018-02-22T22:55:02.984Z,13.43
2018-02-22T22:57:31.402Z,12.68
2018-02-22T23:00:00.801Z,13.55
2018-02-22T23:02:29.225Z,13.90
2018-02-22T23:04:57.862Z,14.00
2018-02-22T23:07:26.288Z,13.32
2018-02-22T23:09:54.783Z,13.35
2018-02-22T23:12:23.176Z,13.13
2018-02-22T23:14:51.608Z,11.75
2018-02-22T23:17:20.767Z,13.57
2018-02-22T23:19:49.162Z,13.15
2018-02-22T23:22:17.560Z,12.32
2018-02-22T23:24:46.808Z,13.48
2018-02-22T23:27:15.276Z,14.32
2018-02-22T23:29:43.731Z,13.70
2018-02-22T23:32:13.151Z,13.23
2018-02-22T23:34:41.566Z,12.15
2018-02-22T23:37:10.011Z,13.20
2018-02-22T23:39:39.188Z,13.75
2018-02-22T23:45:09.796Z,11.88
2018-02-22T23:47:39.059Z,12.93
2018-02-22T23:50:07.480Z,12.77
2018-02-22T23:52:35.943Z,13.02
2018-02-22T23:55:04.331Z,11.70
2018-02-22T23:57:32.754Z,12.32
